Time;durP1;ratioP1;P1;durP2;ratioP2;P2;SDS_P1;SDS_P2;PMS_P1;PMS_P2;Temp;Humidity;BMP_temperature;BMP_pressure;BME280_temperature;BME280_humidity;BME280_pressure;Samples;Min_cycle;Max_cycle;Signal;HPM_P1;HPM_P2
2022/11/07 00:01:38;;;;;;;2.70;1.17;;;9.40;99.90;;;;;;4975790;28;20845;-90
2022/11/07 00:04:04;;;;;;;2.90;1.60;;;9.50;99.90;;;;;;4976427;28;20200;-92
2022/11/07 00:06:30;;;;;;;3.17;1.10;;;9.50;99.90;;;;;;4958434;28;20602;-89
2022/11/07 00:08:57;;;;;;;2.20;1.03;;;9.50;99.90;;;;;;4976056;28;20249;-89
2022/11/07 00:11:23;;;;;;;2.73;1.40;;;9.50;99.90;;;;;;4976976;28;20433;-90
2022/11/07 00:13:48;;;;;;;1.77;0.60;;;9.50;99.90;;;;;;4958793;28;20517;-88
2022/11/07 00:16:15;;;;;;;2.83;1.13;;;9.60;99.90;;;;;;4974897;28;20192;-91
2022/11/07 00:18:41;;;;;;;1.93;1.00;;;9.60;99.90;;;;;;4959499;28;20237;-89
2022/11/07 00:21:08;;;;;;;3.97;1.40;;;9.60;99.90;;;;;;4976083;28;20430;-93
2022/11/07 00:23:35;;;;;;;2.33;1.50;;;9.60;99.90;;;;;;4976314;28;20219;-89
2022/11/07 00:26:05;;;;;;;2.80;1.63;;;9.70;99.90;;;;;;4976002;28;20473;-91
2022/11/07 00:28:38;;;;;;;1.97;0.97;;;9.60;99.90;;;;;;4957819;28;20432;-90
2022/11/07 00:31:04;;;;;;;2.47;1.63;;;9.60;99.90;;;;;;4943585;28;20432;-92
2022/11/07 00:33:30;;;;;;;3.27;1.13;;;9.60;99.90;;;;;;4979709;28;20461;-85
2022/11/07 00:35:56;;;;;;;5.93;2.00;;;9.70;99.90;;;;;;4991012;28;20514;-86
2022/11/07 00:38:21;;;;;;;3.10;1.20;;;9.60;99.90;;;;;;4978911;28;20179;-86
2022/11/07 00:40:58;;;;;;;1.50;0.60;;;9.60;99.90;;;;;;4995277;28;20185;-86
2022/11/07 00:43:26;;;;;;;4.20;1.60;;;9.60;99.90;;;;;;4967190;28;20275;-86
2022/11/07 00:45:52;;;;;;;2.50;1.30;;;9.60;99.90;;;;;;4976275;28;20571;-85
2022/11/07 00:48:18;;;;;;;1.83;1.03;;;9.60;99.90;;;;;;4975817;28;20448;-85
2022/11/07 00:50:44;;;;;;;1.60;0.77;;;9.50;99.90;;;;;;4975409;28;20175;-85
2022/11/07 00:53:09;;;;;;;3.73;0.70;;;9.50;99.90;;;;;;4975102;28;20412;-84
2022/11/07 00:55:35;;;;;;;3.90;1.07;;;9.60;99.90;;;;;;4974409;28;20923;-87
2022/11/07 00:58:01;;;;;;;3.20;1.07;;;9.60;99.90;;;;;;4974882;28;20229;-84
2022/11/07 01:00:26;;;;;;;1.90;0.80;;;9.70;99.90;;;;;;4975609;28;20255;-86
2022/11/07 01:05:37;;;;;;;2.00;0.97;;;9.70;99.90;;;;;;4975168;28;20223;-87
2022/11/07 01:08:03;;;;;;;2.63;1.10;;;9.70;99.90;;;;;;4976164;28;20851;-84
2022/11/07 01:10:29;;;;;;;1.77;0.60;;;9.80;99.90;;;;;;4976495;28;20228;-87
2022/11/07 01:12:55;;;;;;;3.57;1.17;;;9.80;99.90;;;;;;4975502;28;20413;-84
2022/11/07 01:15:23;;;;;;;4.90;3.00;;;9.90;99.90;;;;;;4975993;28;20423;-84
2022/11/07 01:17:49;;;;;;;1.37;0.50;;;9.90;99.90;;;;;;4976361;28;20178;-85
2022/11/07 01:20:15;;;;;;;2.27;1.13;;;10.00;99.90;;;;;;4975552;28;20424;-86
2022/11/07 01:22:41;;;;;;;1.90;0.53;;;10.00;99.90;;;;;;4958585;28;20181;-87
2022/11/07 01:25:07;;;;;;;2.83;1.00;;;10.00;99.90;;;;;;4976067;28;20562;-84
2022/11/07 01:27:33;;;;;;;1.47;0.57;;;10.00;99.90;;;;;;4977355;28;20172;-86
2022/11/07 01:29:59;;;;;;;3.90;0.63;;;10.10;99.90;;;;;;4978698;28;20408;-84
2022/11/07 01:32:24;;;;;;;1.90;0.93;;;10.10;99.90;;;;;;4979214;28;20408;-84
2022/11/07 01:34:50;;;;;;;1.57;0.83;;;10.20;99.90;;;;;;4979923;28;20265;-85
2022/11/07 01:37:15;;;;;;;1.57;0.57;;;10.10;99.90;;;;;;4980028;28;20189;-85
2022/11/07 01:39:41;;;;;;;2.47;0.70;;;10.10;99.90;;;;;;4963064;28;20186;-86
2022/11/07 01:42:09;;;;;;;3.13;1.20;;;10.10;99.90;;;;;;4979240;28;20185;-86
2022/11/07 01:44:41;;;;;;;1.77;0.90;;;10.20;99.90;;;;;;4978369;28;20198;-84
2022/11/07 01:47:08;;;;;;;3.00;1.37;;;10.20;99.90;;;;;;4961583;28;20440;-84
2022/11/07 01:49:39;;;;;;;2.20;0.90;;;10.20;99.90;;;;;;4978477;28;20425;-89
2022/11/07 01:52:17;;;;;;;3.37;1.20;;;10.20;99.90;;;;;;4978034;28;20460;-84
2022/11/07 01:55:09;;;;;;;2.20;0.50;;;10.20;99.90;;;;;;4978373;28;20421;-88
2022/11/07 01:57:39;;;;;;;1.67;1.07;;;10.10;99.90;;;;;;4977661;28;20417;-86
2022/11/07 02:00:08;;;;;;;2.17;0.67;;;10.10;99.90;;;;;;4977697;28;20979;-84
2022/11/07 02:02:34;;;;;;;2.80;1.07;;;10.10;99.90;;;;;;4977744;28;20517;-89
2022/11/07 02:05:02;;;;;;;3.23;0.97;;;10.00;99.90;;;;;;4978028;28;20833;-87
2022/11/07 02:07:28;;;;;;;2.90;1.50;;;10.00;99.90;;;;;;4978504;28;20901;-85
2022/11/07 02:09:54;;;;;;;4.87;1.40;;;9.90;99.90;;;;;;4977794;28;20750;-86
2022/11/07 02:12:22;;;;;;;2.10;0.83;;;9.90;99.90;;;;;;4978011;28;20502;-85
2022/11/07 02:14:48;;;;;;;5.60;1.37;;;9.90;99.90;;;;;;4978439;28;20434;-84
2022/11/07 02:17:15;;;;;;;2.80;0.70;;;10.00;99.90;;;;;;4978407;28;20799;-84
2022/11/07 02:19:42;;;;;;;2.77;0.83;;;10.10;99.90;;;;;;4961658;28;20669;-87
2022/11/07 02:22:16;;;;;;;3.37;1.20;;;10.10;99.90;;;;;;4977610;28;20505;-85
2022/11/07 02:24:42;;;;;;;3.77;1.17;;;10.10;99.90;;;;;;4978984;28;20546;-84
2022/11/07 02:27:17;;;;;;;2.20;0.80;;;10.20;99.90;;;;;;4977375;28;20452;-83
2022/11/07 02:29:50;;;;;;;1.80;0.83;;;10.20;99.90;;;;;;4977897;28;20197;-83
2022/11/07 02:32:15;;;;;;;2.90;1.00;;;10.10;99.90;;;;;;4977282;28;20941;-88
2022/11/07 02:34:41;;;;;;;1.70;1.00;;;10.20;99.90;;;;;;4977474;28;20465;-89
2022/11/07 02:37:15;;;;;;;2.17;0.80;;;10.10;99.90;;;;;;4977187;28;20182;-83
2022/11/07 02:39:41;;;;;;;4.17;0.50;;;10.10;99.90;;;;;;4976747;28;20182;-83
2022/11/07 02:42:07;;;;;;;4.10;0.77;;;10.10;99.90;;;;;;4977636;28;20846;-83
2022/11/07 02:44:33;;;;;;;3.13;1.00;;;10.20;99.90;;;;;;4959327;28;20216;-86
2022/11/07 02:46:59;;;;;;;2.20;0.80;;;10.20;99.90;;;;;;4977525;28;20178;-88
2022/11/07 02:49:25;;;;;;;1.87;0.80;;;10.20;99.90;;;;;;4977406;28;20441;-90
2022/11/07 02:51:50;;;;;;;1.97;0.83;;;10.20;99.90;;;;;;4960929;28;20215;-86
2022/11/07 02:54:15;;;;;;;4.10;0.60;;;10.30;99.90;;;;;;4959552;28;20213;-88
2022/11/07 02:56:41;;;;;;;2.93;0.80;;;10.40;99.90;;;;;;4978492;28;20182;-86
2022/11/07 02:59:07;;;;;;;3.10;0.60;;;10.40;99.90;;;;;;4979721;28;20642;-92
2022/11/07 03:01:32;;;;;;;4.30;1.13;;;10.40;99.90;;;;;;4977434;28;20311;-88
2022/11/07 03:03:58;;;;;;;2.73;1.00;;;10.40;99.90;;;;;;4976800;28;20260;-85
2022/11/07 03:06:24;;;;;;;2.97;0.60;;;10.50;99.90;;;;;;4976866;28;20191;-86
2022/11/07 03:08:50;;;;;;;2.40;0.93;;;10.50;99.90;;;;;;4959479;28;20179;-87
2022/11/07 03:11:18;;;;;;;3.80;0.87;;;10.50;99.90;;;;;;4976820;28;20429;-86
2022/11/07 03:13:47;;;;;;;2.33;0.83;;;10.50;99.90;;;;;;4976595;28;20406;-88
2022/11/07 03:16:14;;;;;;;1.60;0.70;;;10.50;99.90;;;;;;4977030;28;20450;-88
2022/11/07 03:18:40;;;;;;;1.60;0.43;;;10.50;99.90;;;;;;4959821;28;20465;-91
2022/11/07 03:21:06;;;;;;;1.70;0.50;;;10.60;99.90;;;;;;4977725;28;20532;-85
2022/11/07 03:23:34;;;;;;;5.60;1.10;;;10.60;99.90;;;;;;4998763;28;20184;-84
2022/11/07 03:26:00;;;;;;;2.67;0.50;;;10.60;99.90;;;;;;4998659;28;21036;-84
2022/11/07 03:28:25;;;;;;;3.80;0.97;;;10.70;99.90;;;;;;4998701;28;20417;-86
2022/11/07 03:30:55;;;;;;;4.97;0.80;;;10.60;99.90;;;;;;4998370;28;20182;-84
2022/11/07 03:33:21;;;;;;;1.23;0.60;;;10.80;99.90;;;;;;4999483;28;20213;-85
2022/11/07 03:35:49;;;;;;;2.50;0.97;;;10.70;99.90;;;;;;4996820;28;20444;-83
2022/11/07 03:38:16;;;;;;;2.73;1.07;;;10.90;99.90;;;;;;4996043;28;20526;-84
2022/11/07 03:40:45;;;;;;;7.23;1.37;;;10.80;99.90;;;;;;4998334;28;20509;-83
2022/11/07 03:43:13;;;;;;;3.80;0.90;;;10.90;99.90;;;;;;5000972;28;20417;-84
2022/11/07 03:45:38;;;;;;;1.50;0.50;;;10.90;99.90;;;;;;5007809;28;20477;-85
2022/11/07 03:48:04;;;;;;;4.20;1.07;;;10.90;99.90;;;;;;5003094;28;20465;-90
2022/11/07 03:50:30;;;;;;;1.80;0.90;;;10.90;99.90;;;;;;5004650;23;20244;-85
2022/11/07 03:52:55;;;;;;;3.20;1.00;;;10.80;99.90;;;;;;4989770;28;20179;-84
2022/11/07 03:57:52;;;;;;;3.67;1.03;;;10.80;99.90;;;;;;4986536;28;20212;-83
2022/11/07 04:02:44;;;;;;;1.77;0.80;;;10.90;99.90;;;;;;4971343;23;20570;-83
2022/11/07 04:05:11;;;;;;;1.97;0.73;;;11.00;99.90;;;;;;4967014;29;20212;-83
2022/11/07 04:07:39;;;;;;;1.90;0.90;;;11.00;99.90;;;;;;4988459;23;20267;-93
2022/11/07 04:10:05;;;;;;;2.17;0.80;;;11.10;99.90;;;;;;4959570;29;20467;-90
2022/11/07 04:18:29;;;;;;;6.43;1.07;;;11.00;99.90;;;;;;5073148;28;20770;-92
2022/11/07 04:20:54;;;;;;;1.40;0.50;;;11.00;99.90;;;;;;5071194;28;20422;-88
2022/11/07 04:23:20;;;;;;;2.50;0.83;;;11.10;99.90;;;;;;5070942;28;20488;-91
2022/11/07 04:28:29;;;;;;;3.93;0.40;;;11.10;99.90;;;;;;5070858;28;20222;-87
2022/11/07 04:30:55;;;;;;;3.67;0.90;;;11.10;99.90;;;;;;5070787;28;20462;-88
2022/11/07 04:33:20;;;;;;;2.00;0.70;;;11.10;99.90;;;;;;5071917;28;20177;-89
2022/11/07 04:35:46;;;;;;;1.40;0.83;;;11.10;99.90;;;;;;5076317;28;20172;-85
2022/11/07 04:38:11;;;;;;;4.33;0.70;;;11.10;99.90;;;;;;5077227;28;20252;-85
2022/11/07 04:40:37;;;;;;;1.43;0.67;;;11.10;99.90;;;;;;5075196;28;20235;-91
2022/11/07 04:43:07;;;;;;;2.40;0.83;;;11.20;99.90;;;;;;5079761;28;20183;-85
2022/11/07 04:45:35;;;;;;;3.63;0.80;;;11.10;99.90;;;;;;5076446;28;20174;-87
2022/11/07 04:48:00;;;;;;;2.70;1.60;;;11.20;99.90;;;;;;5077406;28;20408;-82
2022/11/07 04:50:26;;;;;;;1.60;0.87;;;11.20;99.90;;;;;;5075902;28;20492;-85
2022/11/07 04:52:51;;;;;;;2.47;1.13;;;11.20;99.90;;;;;;5079815;28;20180;-85
2022/11/07 04:55:20;;;;;;;1.17;0.77;;;11.10;99.90;;;;;;5074880;28;20228;-89
2022/11/07 04:57:46;;;;;;;2.50;1.33;;;11.00;99.90;;;;;;5074729;28;20206;-84
2022/11/07 05:00:12;;;;;;;2.63;1.17;;;11.00;99.90;;;;;;5078185;28;20847;-84
2022/11/07 05:02:38;;;;;;;6.23;1.13;;;10.90;99.90;;;;;;5076751;28;20178;-94
2022/11/07 05:05:04;;;;;;;2.77;1.63;;;10.90;99.90;;;;;;5076741;28;20398;-93
2022/11/07 05:07:29;;;;;;;4.73;1.10;;;10.90;99.90;;;;;;5078995;28;20179;-83
2022/11/07 05:09:55;;;;;;;2.37;0.90;;;10.90;99.90;;;;;;5079153;28;20913;-83
2022/11/07 05:12:20;;;;;;;3.03;1.17;;;10.80;99.90;;;;;;5078605;28;20231;-84
2022/11/07 05:14:48;;;;;;;1.53;0.70;;;10.80;99.90;;;;;;5079611;28;20188;-90
2022/11/07 05:17:15;;;;;;;3.00;1.20;;;10.90;99.90;;;;;;5077332;28;20172;-87
2022/11/07 05:19:44;;;;;;;1.90;1.07;;;10.80;99.90;;;;;;5077462;28;20424;-88
2022/11/07 05:24:54;;;;;;;4.00;1.53;;;10.70;99.90;;;;;;5064507;28;20407;-85
2022/11/07 05:27:21;;;;;;;3.07;1.37;;;10.60;99.90;;;;;;5065490;28;20409;-92
2022/11/07 05:29:46;;;;;;;2.53;1.10;;;10.60;99.90;;;;;;5065894;28;20173;-93
2022/11/07 05:32:12;;;;;;;2.27;0.90;;;10.70;99.90;;;;;;5064559;28;20560;-89
2022/11/07 05:34:38;;;;;;;1.90;1.00;;;10.70;99.90;;;;;;5058678;28;20166;-88
2022/11/07 05:37:11;;;;;;;3.57;1.10;;;10.80;99.90;;;;;;5056870;28;20710;-88
2022/11/07 05:39:37;;;;;;;2.93;1.23;;;10.60;99.90;;;;;;5056946;28;20902;-90
2022/11/07 05:42:03;;;;;;;4.87;1.20;;;10.60;99.90;;;;;;5056742;28;20465;-86
2022/11/07 05:44:29;;;;;;;2.50;1.27;;;10.70;99.90;;;;;;5059916;28;20171;-83
2022/11/07 05:46:58;;;;;;;2.13;1.00;;;10.80;99.90;;;;;;5058162;28;20413;-91
2022/11/07 05:49:24;;;;;;;3.20;1.13;;;10.90;99.90;;;;;;5058372;28;20411;-92
2022/11/07 05:51:50;;;;;;;4.20;1.60;;;11.00;99.90;;;;;;5056816;28;20476;-92
2022/11/07 05:54:16;;;;;;;4.17;1.50;;;11.00;99.90;;;;;;5063542;28;20402;-89
2022/11/07 05:56:43;;;;;;;5.50;1.13;;;10.90;99.90;;;;;;5061240;28;20426;-86
2022/11/07 05:59:09;;;;;;;3.43;1.00;;;10.90;99.90;;;;;;5063778;28;20172;-93
2022/11/07 06:01:35;;;;;;;2.00;0.93;;;10.90;99.90;;;;;;5063966;28;20418;-92
2022/11/07 06:04:03;;;;;;;4.67;1.13;;;10.90;99.90;;;;;;5066220;28;20415;-84
2022/11/07 06:06:30;;;;;;;2.53;1.10;;;10.90;99.90;;;;;;5058297;28;20418;-86
2022/11/07 06:08:56;;;;;;;2.50;1.23;;;11.00;99.90;;;;;;5060739;28;20923;-91
2022/11/07 06:11:21;;;;;;;3.80;1.13;;;11.00;99.90;;;;;;5060564;28;20483;-89
2022/11/07 06:13:47;;;;;;;2.30;0.83;;;11.00;99.90;;;;;;5061143;28;20224;-86
2022/11/07 06:16:12;;;;;;;4.53;1.20;;;10.80;99.90;;;;;;5060853;28;20206;-91
2022/11/07 06:18:38;;;;;;;2.77;1.50;;;10.70;99.90;;;;;;5060964;28;20170;-93
2022/11/07 06:21:03;;;;;;;4.57;1.30;;;10.60;99.90;;;;;;5057398;28;20169;-87
2022/11/07 06:23:29;;;;;;;3.50;1.43;;;10.60;99.90;;;;;;5057934;28;20172;-85
2022/11/07 06:25:54;;;;;;;7.23;1.50;;;10.50;99.90;;;;;;5057765;28;20299;-91
2022/11/07 06:28:20;;;;;;;3.30;1.57;;;10.40;99.90;;;;;;5058420;28;20167;-95
2022/11/07 06:30:45;;;;;;;4.40;1.30;;;10.30;99.90;;;;;;5057025;28;20731;-89
2022/11/07 06:33:14;;;;;;;2.53;1.20;;;10.30;99.90;;;;;;5060001;28;20176;-89
2022/11/07 06:35:43;;;;;;;2.33;1.50;;;10.50;99.90;;;;;;5064802;28;20177;-89
2022/11/07 06:38:09;;;;;;;5.73;1.23;;;10.60;99.90;;;;;;5069367;28;20398;-83
2022/11/07 06:40:36;;;;;;;1.17;0.70;;;10.50;99.90;;;;;;5069224;28;20403;-84
2022/11/07 06:43:13;;;;;;;3.03;1.40;;;10.60;99.90;;;;;;5078040;28;20431;-83
2022/11/07 06:45:39;;;;;;;4.67;1.60;;;10.60;99.90;;;;;;5078375;28;20414;-86
2022/11/07 06:48:05;;;;;;;1.60;0.80;;;10.40;99.90;;;;;;5077786;28;20443;-89
2022/11/07 06:50:31;;;;;;;3.50;1.67;;;10.40;99.90;;;;;;5077431;28;20415;-91
2022/11/07 06:53:05;;;;;;;3.53;1.33;;;10.50;99.90;;;;;;5056392;28;20189;-94
2022/11/07 06:55:36;;;;;;;4.53;1.40;;;10.50;99.90;;;;;;5054135;28;20461;-88
2022/11/07 06:58:02;;;;;;;4.80;1.70;;;10.50;99.90;;;;;;5055075;28;20420;-86
2022/11/07 07:00:31;;;;;;;4.90;1.47;;;10.50;99.90;;;;;;5054901;28;20410;-93
2022/11/07 07:02:56;;;;;;;4.70;1.10;;;10.50;99.90;;;;;;5055567;28;20414;-91
2022/11/07 07:05:22;;;;;;;1.80;0.90;;;10.60;99.90;;;;;;5053713;28;20433;-93
2022/11/07 07:07:48;;;;;;;7.83;1.67;;;10.50;99.90;;;;;;5053662;28;20179;-88
2022/11/07 07:10:14;;;;;;;1.93;0.60;;;10.60;99.90;;;;;;5053831;28;20761;-90
2022/11/07 07:12:40;;;;;;;1.60;1.00;;;10.70;99.90;;;;;;5055660;28;20191;-91
2022/11/07 07:15:06;;;;;;;6.27;2.07;;;10.70;99.90;;;;;;5055661;28;20412;-91
2022/11/07 07:17:31;;;;;;;4.53;1.17;;;10.70;99.90;;;;;;5056055;28;20540;-86
2022/11/07 07:19:57;;;;;;;3.70;1.93;;;10.70;99.90;;;;;;5060665;28;20502;-84
2022/11/07 07:22:25;;;;;;;4.70;0.90;;;10.60;99.90;;;;;;5062150;28;20181;-85
2022/11/07 07:24:52;;;;;;;3.73;1.17;;;10.70;99.90;;;;;;5060322;28;20169;-84
2022/11/07 07:27:19;;;;;;;3.10;1.20;;;10.80;99.90;;;;;;5058936;28;20427;-84
2022/11/07 07:29:45;;;;;;;7.00;1.10;;;10.80;99.90;;;;;;5057433;28;20414;-86
2022/11/07 07:32:11;;;;;;;5.10;1.60;;;10.90;99.90;;;;;;5056348;28;20482;-83
2022/11/07 07:34:37;;;;;;;2.37;0.97;;;10.90;99.90;;;;;;5057540;28;20774;-84
2022/11/07 07:37:02;;;;;;;3.27;2.47;;;11.10;99.90;;;;;;5057130;28;20181;-83
2022/11/07 07:39:29;;;;;;;3.10;0.90;;;11.10;99.90;;;;;;5054682;28;20175;-82
2022/11/07 07:41:55;;;;;;;1.80;0.73;;;11.30;99.90;;;;;;5060459;28;20260;-93
2022/11/07 07:44:20;;;;;;;4.40;1.33;;;11.40;99.90;;;;;;5056946;28;20449;-84
2022/11/07 07:46:46;;;;;;;5.40;1.10;;;11.50;99.90;;;;;;5052632;28;20184;-84
2022/11/07 07:49:12;;;;;;;5.87;1.60;;;11.50;99.90;;;;;;5053912;28;20172;-84
2022/11/07 07:51:37;;;;;;;4.43;1.30;;;11.50;99.90;;;;;;5055850;28;20217;-88
2022/11/07 07:54:03;;;;;;;4.77;0.43;;;11.70;99.90;;;;;;5054578;28;20226;-89
2022/11/07 07:56:31;;;;;;;4.70;1.77;;;11.70;99.90;;;;;;5057201;28;20215;-92
2022/11/07 07:58:57;;;;;;;3.70;1.53;;;11.70;99.90;;;;;;5062988;28;20826;-86
2022/11/07 08:01:22;;;;;;;1.70;0.90;;;11.70;99.90;;;;;;5068205;28;20413;-92
2022/11/07 08:03:48;;;;;;;2.43;0.87;;;11.80;99.90;;;;;;5070624;28;20170;-93
2022/11/07 08:06:14;;;;;;;1.77;0.50;;;11.90;99.90;;;;;;5071722;28;20174;-89
2022/11/07 08:08:43;;;;;;;2.30;1.00;;;12.00;99.90;;;;;;5068545;28;20185;-94
2022/11/07 08:11:09;;;;;;;2.37;0.80;;;11.90;99.90;;;;;;5067175;28;20503;-92
2022/11/07 08:13:35;;;;;;;5.77;0.93;;;12.40;95.70;;;;;;5059665;28;20442;-92
2022/11/07 08:16:02;;;;;;;2.33;0.87;;;13.10;1.00;;;;;;5059492;28;20422;-85
2022/11/07 08:18:27;;;;;;;4.00;0.77;;;13.30;1.00;;;;;;5057313;28;20195;-84
2022/11/07 08:20:54;;;;;;;2.90;0.90;;;13.10;1.00;;;;;;5060021;28;20435;-86
2022/11/07 08:23:21;;;;;;;4.37;1.03;;;13.00;1.00;;;;;;5061519;28;20513;-85
2022/11/07 08:25:49;;;;;;;3.80;0.97;;;13.40;1.00;;;;;;5059184;28;20895;-88
2022/11/07 08:28:15;;;;;;;2.97;0.70;;;13.10;1.00;;;;;;5061353;28;20419;-94
2022/11/07 08:30:41;;;;;;;2.73;0.30;;;13.10;1.00;;;;;;5057907;28;20459;-83
2022/11/07 08:33:06;;;;;;;4.57;1.30;;;13.30;1.00;;;;;;5056643;28;20232;-83
2022/11/07 08:35:32;;;;;;;1.17;0.30;;;14.00;1.00;;;;;;5054430;28;20507;-91
2022/11/07 08:37:58;;;;;;;1.63;0.23;;;13.90;99.90;;;;;;5053352;28;20240;-85
2022/11/07 08:40:24;;;;;;;2.80;0.83;;;13.60;99.90;;;;;;5052996;28;20568;-89
2022/11/07 08:42:49;;;;;;;1.80;0.50;;;13.40;1.00;;;;;;5054895;28;20778;-93
2022/11/07 08:45:19;;;;;;;2.63;0.70;;;13.10;1.00;;;;;;5054621;28;20520;-84
2022/11/07 08:47:45;;;;;;;9.30;0.87;;;13.10;1.00;;;;;;5054639;28;20215;-91
2022/11/07 08:50:11;;;;;;;2.07;0.93;;;12.90;1.00;;;;;;5053791;28;20442;-96
2022/11/07 08:52:36;;;;;;;2.77;1.00;;;12.90;1.00;;;;;;5051627;28;20210;-92
2022/11/07 08:55:03;;;;;;;6.17;1.83;;;13.10;1.00;;;;;;5055471;28;20256;-96
2022/11/07 08:57:28;;;;;;;3.17;0.80;;;12.80;27.40;;;;;;5058590;28;20181;-89
2022/11/07 08:59:54;;;;;;;1.37;0.67;;;12.80;26.20;;;;;;5060420;28;20409;-93
2022/11/07 09:02:22;;;;;;;3.60;1.03;;;12.80;20.00;;;;;;5062497;28;20167;-94
2022/11/07 09:04:47;;;;;;;2.03;0.60;;;12.70;30.30;;;;;;5060822;28;20182;-93
2022/11/07 09:07:13;;;;;;;6.90;1.50;;;12.80;11.00;;;;;;5060894;28;20423;-90
2022/11/07 09:09:38;;;;;;;5.83;0.93;;;13.00;1.00;;;;;;5055961;28;20206;-87
2022/11/07 09:12:04;;;;;;;5.90;1.00;;;13.20;1.00;;;;;;5055976;28;20288;-90
2022/11/07 09:14:30;;;;;;;1.30;0.40;;;13.60;1.00;;;;;;5057191;28;20164;-88
2022/11/07 09:16:56;;;;;;;3.60;0.50;;;14.80;1.00;;;;;;5055605;28;20249;-85
2022/11/07 09:19:22;;;;;;;1.93;0.83;;;16.50;1.00;;;;;;5056110;28;20258;-87
2022/11/07 09:21:48;;;;;;;5.43;0.47;;;16.70;1.00;;;;;;5055999;28;20846;-89
2022/11/07 09:24:13;;;;;;;1.20;0.50;;;17.80;99.90;;;;;;5056971;28;20165;-88
2022/11/07 09:26:38;;;;;;;5.70;0.90;;;17.60;99.90;;;;;;5055740;28;20248;-85
2022/11/07 09:29:04;;;;;;;6.00;1.17;;;16.80;99.90;;;;;;5055830;28;20181;-88
2022/11/07 09:31:29;;;;;;;3.27;0.57;;;16.50;1.00;;;;;;5056152;28;20274;-92
2022/11/07 09:33:55;;;;;;;3.40;1.03;;;15.20;62.20;;;;;;5055955;28;20168;-88
2022/11/07 09:36:22;;;;;;;5.13;0.40;;;15.10;1.00;;;;;;5055925;28;20605;-86
2022/11/07 09:38:48;;;;;;;3.90;1.03;;;14.90;99.90;;;;;;5056529;28;20172;-89
2022/11/07 09:41:29;;;;;;;3.93;0.40;;;15.70;99.90;;;;;;5055679;28;20430;-91
2022/11/07 09:44:32;;;;;;;4.10;0.93;;;16.70;1.00;;;;;;5055550;28;20232;-91
2022/11/07 09:47:36;;;;;;;3.80;0.57;;;17.30;99.90;;;;;;5056236;28;20510;-88
2022/11/07 09:50:28;;;;;;;2.90;0.50;;;17.30;99.90;;;;;;5039045;28;20772;-88
2022/11/07 09:53:17;;;;;;;2.40;0.33;;;18.20;99.90;;;;;;5057580;28;20426;-89
2022/11/07 09:55:51;;;;;;;4.33;0.70;;;17.00;99.90;;;;;;5055522;28;20420;-88
2022/11/07 09:58:24;;;;;;;1.70;0.57;;;15.90;1.00;;;;;;5053485;28;20412;-83
2022/11/07 10:00:59;;;;;;;2.43;0.50;;;16.00;99.90;;;;;;5055085;28;20761;-85
2022/11/07 10:03:25;;;;;;;4.33;0.33;;;15.30;60.80;;;;;;5055042;28;20769;-81
2022/11/07 10:06:10;;;;;;;5.37;0.70;;;14.90;99.90;;;;;;5053715;28;20438;-82
2022/11/07 10:08:48;;;;;;;4.73;0.93;;;14.50;99.90;;;;;;5054912;28;20205;-81
2022/11/07 10:11:35;;;;;;;5.70;1.40;;;14.40;99.90;;;;;;5051195;28;20474;-92
2022/11/07 10:14:08;;;;;;;4.93;0.80;;;14.20;99.90;;;;;;5054873;28;20496;-89
2022/11/07 10:16:52;;;;;;;2.57;0.60;;;14.00;99.90;;;;;;5056243;28;20422;-88
2022/11/07 10:19:40;;;;;;;2.33;0.97;;;14.00;1.00;;;;;;5058213;28;20397;-84
2022/11/07 10:22:30;;;;;;;3.40;0.83;;;14.00;99.90;;;;;;5056465;28;21004;-94
2022/11/07 10:25:29;;;;;;;3.10;0.80;;;14.10;99.90;;;;;;5053635;28;20433;-86
2022/11/07 10:28:21;;;;;;;4.10;0.73;;;14.20;99.90;;;;;;5036996;28;20422;-90
2022/11/07 10:30:49;;;;;;;6.40;0.80;;;14.20;99.90;;;;;;5057309;28;20474;-85
2022/11/07 10:33:34;;;;;;;2.40;0.70;;;14.40;99.90;;;;;;5057893;28;20464;-90
2022/11/07 10:36:20;;;;;;;3.70;0.93;;;14.40;1.00;;;;;;5059859;28;20438;-89
2022/11/07 10:38:46;;;;;;;2.40;0.60;;;14.50;5.20;;;;;;5059470;28;21148;-91
2022/11/07 10:41:25;;;;;;;2.97;1.20;;;14.60;99.90;;;;;;5055670;28;20423;-89
2022/11/07 10:44:08;;;;;;;5.60;1.00;;;14.60;99.90;;;;;;5049898;28;20279;-84
2022/11/07 10:46:38;;;;;;;4.70;1.00;;;14.70;99.90;;;;;;5054878;28;20405;-86
2022/11/07 10:49:20;;;;;;;6.10;1.40;;;14.50;99.90;;;;;;5052829;28;20527;-86
2022/11/07 10:51:46;;;;;;;3.10;0.90;;;14.60;1.00;;;;;;5053978;28;20466;-88
2022/11/07 10:54:30;;;;;;;1.77;0.37;;;14.40;99.90;;;;;;5052789;28;20498;-89
2022/11/07 10:57:04;;;;;;;3.40;2.20;;;14.20;99.90;;;;;;5054170;28;20428;-94
2022/11/07 10:59:33;;;;;;;6.17;1.60;;;14.10;1.00;;;;;;5054280;28;20415;-94
2022/11/07 11:01:59;;;;;;;6.10;0.90;;;14.00;1.00;;;;;;5053263;28;20435;-92
2022/11/07 11:04:36;;;;;;;6.93;1.30;;;14.00;1.00;;;;;;5053601;28;20436;-90
2022/11/07 11:07:11;;;;;;;5.13;0.80;;;14.10;1.00;;;;;;5053606;28;20411;-88
2022/11/07 11:09:38;;;;;;;2.20;0.73;;;14.00;99.90;;;;;;5052492;28;20434;-88
2022/11/07 11:12:15;;;;;;;1.63;0.47;;;14.00;1.00;;;;;;5053196;28;20909;-84
2022/11/07 11:14:41;;;;;;;3.90;1.23;;;14.00;99.90;;;;;;5053742;28;20407;-90
2022/11/07 11:17:23;;;;;;;4.27;0.90;;;14.00;99.90;;;;;;5054594;28;20451;-93
2022/11/07 11:19:52;;;;;;;8.53;1.17;;;13.90;99.90;;;;;;5063781;28;20243;-93
2022/11/07 11:22:20;;;;;;;3.80;0.83;;;13.90;1.00;;;;;;5058069;28;20426;-92
2022/11/07 11:24:56;;;;;;;5.13;0.87;;;13.90;1.00;;;;;;5056948;28;20420;-92
2022/11/07 11:27:24;;;;;;;4.80;1.20;;;13.90;1.00;;;;;;5057262;28;20458;-80
2022/11/07 11:29:55;;;;;;;4.60;1.10;;;13.80;1.00;;;;;;5053579;28;20933;-82
2022/11/07 11:32:41;;;;;;;3.77;0.83;;;13.80;1.00;;;;;;5053741;28;20526;-83
2022/11/07 11:35:35;;;;;;;5.93;1.63;;;13.80;1.00;;;;;;5054391;28;20414;-81
2022/11/07 11:38:16;;;;;;;3.23;0.90;;;13.80;1.00;;;;;;5043415;28;20469;-82
2022/11/07 11:40:47;;;;;;;3.70;1.00;;;13.80;1.00;;;;;;5053420;28;20413;-84
2022/11/07 11:43:25;;;;;;;4.60;1.37;;;13.70;1.00;;;;;;5053597;28;20415;-85
2022/11/07 11:46:17;;;;;;;6.23;1.10;;;13.80;1.00;;;;;;5055059;28;20518;-82
2022/11/07 11:48:47;;;;;;;4.10;1.13;;;13.80;1.00;;;;;;5053555;28;20507;-93
2022/11/07 11:51:23;;;;;;;4.57;2.00;;;13.90;1.00;;;;;;5053938;28;20467;-89
2022/11/07 11:53:49;;;;;;;6.93;0.77;;;13.80;1.00;;;;;;5053664;28;20458;-86
2022/11/07 11:56:20;;;;;;;2.90;0.90;;;13.80;1.00;;;;;;5052842;28;20418;-82
2022/11/07 11:59:25;;;;;;;4.67;1.10;;;13.80;1.00;;;;;;5052922;28;20184;-82
2022/11/07 12:02:00;;;;;;;4.30;1.53;;;13.80;1.00;;;;;;5052958;28;20448;-85
2022/11/07 12:04:41;;;;;;;3.90;0.87;;;13.90;1.00;;;;;;5053351;28;20419;-83
2022/11/07 12:07:13;;;;;;;2.00;0.87;;;13.80;1.00;;;;;;5053698;28;20429;-83
2022/11/07 12:09:49;;;;;;;4.63;1.80;;;13.90;1.00;;;;;;5053599;28;20919;-83
2022/11/07 12:12:36;;;;;;;3.33;1.03;;;14.00;1.00;;;;;;5052702;28;20840;-82
2022/11/07 12:15:12;;;;;;;2.73;0.70;;;14.10;1.00;;;;;;5052981;28;20397;-83
2022/11/07 12:17:48;;;;;;;2.03;0.50;;;14.10;1.00;;;;;;5053469;28;20409;-86
2022/11/07 12:20:25;;;;;;;7.47;1.47;;;14.10;1.00;;;;;;5053440;28;20807;-85
2022/11/07 12:22:59;;;;;;;4.63;1.13;;;14.30;1.00;;;;;;5053599;28;20505;-83
2022/11/07 12:25:33;;;;;;;4.17;0.77;;;14.50;99.90;;;;;;5053287;28;20745;-85
2022/11/07 12:28:21;;;;;;;8.37;1.07;;;14.70;1.00;;;;;;5053525;28;20424;-84
2022/11/07 12:30:53;;;;;;;4.43;1.00;;;14.70;99.90;;;;;;5053494;28;20468;-86
2022/11/07 12:33:32;;;;;;;3.83;1.20;;;14.50;1.00;;;;;;5055271;28;20482;-82
2022/11/07 12:36:38;;;;;;;5.37;2.20;;;14.40;1.00;;;;;;5057333;28;20430;-84
2022/11/07 12:39:37;;;;;;;2.30;1.07;;;14.20;1.00;;;;;;5056973;28;20428;-85
2022/11/07 12:42:12;;;;;;;6.57;1.60;;;14.20;1.00;;;;;;5056361;28;20777;-85
2022/11/07 12:44:59;;;;;;;5.70;0.90;;;14.10;1.00;;;;;;5056598;28;20513;-82
2022/11/07 12:47:30;;;;;;;5.10;1.10;;;14.10;1.00;;;;;;5056750;28;20420;-82
2022/11/07 12:50:09;;;;;;;4.50;0.90;;;14.20;1.00;;;;;;5056773;28;20536;-87
2022/11/07 12:52:59;;;;;;;2.83;1.33;;;14.10;1.00;;;;;;5056378;28;20970;-85
2022/11/07 12:55:36;;;;;;;2.73;0.60;;;14.10;1.00;;;;;;5056690;28;20618;-83
2022/11/07 12:58:03;;;;;;;4.90;1.00;;;14.10;1.00;;;;;;5056814;28;20440;-86
2022/11/07 13:00:29;;;;;;;3.63;1.10;;;14.10;1.00;;;;;;5056633;28;20432;-82
2022/11/07 13:03:18;;;;;;;3.60;0.93;;;14.00;1.00;;;;;;5056383;28;20773;-85
2022/11/07 13:06:21;;;;;;;5.43;1.00;;;14.10;1.00;;;;;;5056359;28;20192;-87
2022/11/07 13:09:04;;;;;;;1.83;0.50;;;14.10;1.00;;;;;;5056583;28;20412;-85
2022/11/07 13:11:55;;;;;;;3.87;0.90;;;14.10;1.00;;;;;;5055455;28;20478;-87
2022/11/07 13:14:31;;;;;;;6.23;0.70;;;14.10;1.00;;;;;;5056029;28;20420;-82
2022/11/07 13:16:57;;;;;;;5.23;0.67;;;14.10;1.00;;;;;;5056102;28;20465;-82
2022/11/07 13:19:31;;;;;;;6.63;0.80;;;14.10;1.00;;;;;;5055878;28;20407;-82
2022/11/07 13:22:18;;;;;;;2.77;0.73;;;14.10;1.00;;;;;;5056073;28;20226;-83
2022/11/07 13:25:10;;;;;;;2.73;0.53;;;14.00;1.00;;;;;;5055941;28;20461;-82